METAR Formatted Surface Weather Observation
Issued by NWS

Home | Current Version | Previous Version | Text Only | Print | Product List | Glossary On
Versions: 1 2 3 4 5 6 7
000
SAUS45 KPSR 261259
MTRFHU
METAR KFHU 261256Z AUTO 25007KT 10SM CLR 21/12 A3018 RMK AO2 SLP160
T02060122 $



USA.gov is the U.S. government's official web portal to all federal, state and local government web resources and services.